Hlavní strana
METAR-TAF:

METAR-TAF

Letiště :

Tunis, Tunisko

zeměpisná šířka: 36-50N, zeměpisná délka: 010-14E, výška: 3 m

Aktuální stav počasí

Zpráva byla vytvořena před 16 minutami, v 02:00 UTC
Jihojihovýchodní vítr 2 kt
Teplota 13°C
Vlhkost vzduchu 51%
Tlak 1014 hPa
Viditelnost 10 km a více
Skoro jasno ve výšce 3000 ft

METAR: DTTA 260200Z 16002KT 9999 FEW030 13/03 Q1014

Čas: 03:16 (02:16 UTC)

Předpověď počasí

Zpráva byla vytvořena před 3 hodinami a 16 minutami, v 23:00 UTC
Předpověď platná od 26 v 00 UTC do 26 v 24 UTC
Jihojihozápadní vítr 7 kt
Viditelnost 10 km a více
Skoro jasno ve výšce 2600 ft
Změna
od 26 v 07 UTC do 26 v 09 UTC
Západní vítr 12 kt
Změna
od 25 v 14 UTC do 25 v 16 UTC
Západoseverozápadní vítr 15 kt s nárazy do 25 kt

TAF: DTTA 252300Z 2600/2624 21007KT 9999 FEW026 BECMG 2607/2609 27012KT BECMG 2514/2516 30015G25KT

Stav a předpovědi počasí z více než 4 000 letišť (zprávy METAR a TAF).

Červené a žluté tečky na mapě představují dostupné meteorologické stanice.

Když kurzor umístíte na tečku, zobrazí se název stanice.

Pak kliknutím zobrazíte stav a předpověď počasí.

Chcete-li změnit mapu, kliknutím na zelené tlačítko se znaménkem +mapu přiblížíte, kliknutím na zelené tlačítko se znaménkem – mapu oddálíte a kliknutím na zelené šipky přejdete na sousední mapy.


METAR-TAF: